Terminal Aerodrome Forecast
Issued by NWS

Home | Current Version | Previous Version | Text Only | Print | Product List | Glossary On
Versions: 1 2 3 4 5 6 7 8 9 10 11 12 13 14 15 16 17 18 19 20 21
000
FTUS43 KICT 280644 AAA
TAFSLN
TAF AMD
KSLN 280644Z 2807/2906 VRB05KT P6SM -SHRA VCTS SCT040CB BKN100
      TEMPO 2807/2809 5SM -TSRA SCT015 OVC040CB
     FM281000 15010KT P6SM VCTS BKN025CB
     FM281500 18018G25KT P6SM BKN050
     FM290300 18012KT P6SM SCT030 BKN120=

USA.gov is the U.S. government's official web portal to all federal, state and local government web resources and services.